sensor_id;sensor_type;location;lat;lon;timestamp;P1;durP1;ratioP1;P2;durP2;ratioP2
37983;SDS011;61733;50.882;4.376;2022-09-03T00:01:27;4.35;;;1.77;;
37983;SDS011;61733;50.882;4.376;2022-09-03T00:04:15;23.73;;;3.28;;
37983;SDS011;61733;50.882;4.376;2022-09-03T00:07:06;6.35;;;3.58;;
37983;SDS011;61733;50.882;4.376;2022-09-03T00:09:42;8.63;;;1.83;;
37983;SDS011;61733;50.882;4.376;2022-09-03T00:12:16;7.38;;;3.13;;
37983;SDS011;61733;50.882;4.376;2022-09-03T00:14:52;13.93;;;2.63;;
37983;SDS011;61733;50.882;4.376;2022-09-03T00:17:24;12.80;;;3.15;;
37983;SDS011;61733;50.882;4.376;2022-09-03T00:19:59;3.97;;;1.95;;
37983;SDS011;61733;50.882;4.376;2022-09-03T00:22:40;4.75;;;1.80;;
37983;SDS011;61733;50.882;4.376;2022-09-03T00:25:12;9.77;;;2.55;;
37983;SDS011;61733;50.882;4.376;2022-09-03T00:27:42;12.30;;;2.65;;
37983;SDS011;61733;50.882;4.376;2022-09-03T00:30:12;5.38;;;2.22;;
37983;SDS011;61733;50.882;4.376;2022-09-03T00:35:32;3.60;;;2.33;;
37983;SDS011;61733;50.882;4.376;2022-09-03T00:38:18;3.72;;;1.88;;
37983;SDS011;61733;50.882;4.376;2022-09-03T00:52:02;5.18;;;2.30;;
37983;SDS011;61733;50.882;4.376;2022-09-03T01:13:33;14.15;;;2.88;;
37983;SDS011;61733;50.882;4.376;2022-09-03T01:16:27;10.60;;;2.25;;
37983;SDS011;61733;50.882;4.376;2022-09-03T01:30:35;3.28;;;1.73;;
37983;SDS011;61733;50.882;4.376;2022-09-03T01:44:23;5.95;;;1.85;;
37983;SDS011;61733;50.882;4.376;2022-09-03T01:46:57;10.60;;;2.65;;
37983;SDS011;61733;50.882;4.376;2022-09-03T01:58:06;4.65;;;2.08;;
37983;SDS011;61733;50.882;4.376;2022-09-03T02:00:55;3.58;;;2.22;;
37983;SDS011;61733;50.882;4.376;2022-09-03T02:03:32;6.13;;;1.90;;
37983;SDS011;61733;50.882;4.376;2022-09-03T02:06:03;2.33;;;1.70;;
37983;SDS011;61733;50.882;4.376;2022-09-03T02:08:31;7.97;;;2.03;;
37983;SDS011;61733;50.882;4.376;2022-09-03T02:10:57;11.00;;;3.15;;
37983;SDS011;61733;50.882;4.376;2022-09-03T02:16:17;5.32;;;2.28;;
37983;SDS011;61733;50.882;4.376;2022-09-03T02:18:46;8.82;;;3.20;;
37983;SDS011;61733;50.882;4.376;2022-09-03T02:21:32;3.28;;;2.40;;
37983;SDS011;61733;50.882;4.376;2022-09-03T02:24:02;8.85;;;2.05;;
37983;SDS011;61733;50.882;4.376;2022-09-03T02:26:29;13.88;;;2.15;;
37983;SDS011;61733;50.882;4.376;2022-09-03T02:28:55;6.18;;;2.63;;
37983;SDS011;61733;50.882;4.376;2022-09-03T02:31:22;16.23;;;3.42;;
37983;SDS011;61733;50.882;4.376;2022-09-03T02:33:49;5.80;;;2.15;;
37983;SDS011;61733;50.882;4.376;2022-09-03T02:36:16;8.55;;;2.50;;
37983;SDS011;61733;50.882;4.376;2022-09-03T02:38:46;7.68;;;2.80;;
37983;SDS011;61733;50.882;4.376;2022-09-03T02:41:12;3.90;;;2.28;;
37983;SDS011;61733;50.882;4.376;2022-09-03T02:46:29;15.85;;;3.28;;
37983;SDS011;61733;50.882;4.376;2022-09-03T02:49:02;6.22;;;2.70;;
37983;SDS011;61733;50.882;4.376;2022-09-03T02:51:39;5.90;;;2.90;;
37983;SDS011;61733;50.882;4.376;2022-09-03T02:54:07;5.53;;;2.25;;
37983;SDS011;61733;50.882;4.376;2022-09-03T02:56:34;6.38;;;3.10;;
37983;SDS011;61733;50.882;4.376;2022-09-03T02:59:01;4.13;;;2.30;;
37983;SDS011;61733;50.882;4.376;2022-09-03T03:01:29;5.85;;;2.88;;
37983;SDS011;61733;50.882;4.376;2022-09-03T03:03:55;5.05;;;2.72;;
37983;SDS011;61733;50.882;4.376;2022-09-03T03:06:21;6.32;;;3.25;;
37983;SDS011;61733;50.882;4.376;2022-09-03T03:08:47;11.35;;;2.90;;
37983;SDS011;61733;50.882;4.376;2022-09-03T03:11:14;8.00;;;3.22;;
37983;SDS011;61733;50.882;4.376;2022-09-03T03:13:45;6.40;;;3.20;;
37983;SDS011;61733;50.882;4.376;2022-09-03T03:16:11;4.35;;;3.50;;
37983;SDS011;61733;50.882;4.376;2022-09-03T03:18:39;8.48;;;5.00;;
37983;SDS011;61733;50.882;4.376;2022-09-03T03:21:05;8.45;;;5.25;;
37983;SDS011;61733;50.882;4.376;2022-09-03T03:23:33;10.90;;;3.72;;
37983;SDS011;61733;50.882;4.376;2022-09-03T03:26:00;5.38;;;2.80;;
37983;SDS011;61733;50.882;4.376;2022-09-03T03:28:26;5.57;;;3.13;;
37983;SDS011;61733;50.882;4.376;2022-09-03T03:30:52;8.00;;;3.70;;
37983;SDS011;61733;50.882;4.376;2022-09-03T03:33:18;7.68;;;3.08;;
37983;SDS011;61733;50.882;4.376;2022-09-03T03:35:44;13.57;;;3.08;;
37983;SDS011;61733;50.882;4.376;2022-09-03T03:38:10;11.32;;;2.92;;
37983;SDS011;61733;50.882;4.376;2022-09-03T03:40:37;7.50;;;3.17;;
37983;SDS011;61733;50.882;4.376;2022-09-03T03:43:03;18.50;;;3.35;;
37983;SDS011;61733;50.882;4.376;2022-09-03T03:45:28;7.78;;;2.95;;
37983;SDS011;61733;50.882;4.376;2022-09-03T03:47:57;4.80;;;3.35;;
37983;SDS011;61733;50.882;4.376;2022-09-03T03:50:24;10.27;;;2.80;;
37983;SDS011;61733;50.882;4.376;2022-09-03T03:52:50;7.50;;;3.63;;
37983;SDS011;61733;50.882;4.376;2022-09-03T03:55:16;7.35;;;3.90;;
37983;SDS011;61733;50.882;4.376;2022-09-03T03:57:42;5.70;;;4.18;;
37983;SDS011;61733;50.882;4.376;2022-09-03T04:00:07;7.95;;;4.40;;
37983;SDS011;61733;50.882;4.376;2022-09-03T04:02:34;6.57;;;4.22;;
37983;SDS011;61733;50.882;4.376;2022-09-03T04:04:59;8.18;;;3.00;;
37983;SDS011;61733;50.882;4.376;2022-09-03T04:07:25;7.07;;;3.83;;
37983;SDS011;61733;50.882;4.376;2022-09-03T04:09:51;15.18;;;4.22;;
37983;SDS011;61733;50.882;4.376;2022-09-03T04:12:16;8.43;;;3.80;;
37983;SDS011;61733;50.882;4.376;2022-09-03T04:14:43;13.00;;;4.88;;
37983;SDS011;61733;50.882;4.376;2022-09-03T04:17:09;11.50;;;4.18;;
37983;SDS011;61733;50.882;4.376;2022-09-03T04:19:34;17.48;;;3.83;;
37983;SDS011;61733;50.882;4.376;2022-09-03T04:22:00;6.40;;;4.15;;
37983;SDS011;61733;50.882;4.376;2022-09-03T04:24:27;6.20;;;2.72;;
37983;SDS011;61733;50.882;4.376;2022-09-03T04:26:52;2.80;;;2.45;;
37983;SDS011;61733;50.882;4.376;2022-09-03T04:29:18;5.07;;;2.72;;
37983;SDS011;61733;50.882;4.376;2022-09-03T04:31:46;6.22;;;3.17;;
37983;SDS011;61733;50.882;4.376;2022-09-03T04:34:30;12.27;;;3.30;;
37983;SDS011;61733;50.882;4.376;2022-09-03T04:36:56;3.72;;;2.83;;
37983;SDS011;61733;50.882;4.376;2022-09-03T04:39:23;3.05;;;2.75;;
37983;SDS011;61733;50.882;4.376;2022-09-03T04:41:49;5.25;;;3.03;;
37983;SDS011;61733;50.882;4.376;2022-09-03T04:44:15;5.80;;;3.42;;
37983;SDS011;61733;50.882;4.376;2022-09-03T04:46:41;5.55;;;3.42;;
37983;SDS011;61733;50.882;4.376;2022-09-03T04:49:07;7.13;;;3.75;;
37983;SDS011;61733;50.882;4.376;2022-09-03T04:51:34;5.03;;;4.00;;
37983;SDS011;61733;50.882;4.376;2022-09-03T04:54:01;9.95;;;4.20;;
37983;SDS011;61733;50.882;4.376;2022-09-03T04:56:29;9.98;;;4.40;;
37983;SDS011;61733;50.882;4.376;2022-09-03T04:58:57;9.65;;;4.82;;
37983;SDS011;61733;50.882;4.376;2022-09-03T05:01:25;4.93;;;4.30;;
37983;SDS011;61733;50.882;4.376;2022-09-03T05:03:54;6.00;;;4.30;;
37983;SDS011;61733;50.882;4.376;2022-09-03T05:06:20;4.45;;;3.97;;
37983;SDS011;61733;50.882;4.376;2022-09-03T05:08:46;6.53;;;5.30;;
37983;SDS011;61733;50.882;4.376;2022-09-03T05:11:13;11.15;;;5.13;;
37983;SDS011;61733;50.882;4.376;2022-09-03T05:13:39;10.10;;;4.78;;
37983;SDS011;61733;50.882;4.376;2022-09-03T05:16:06;6.28;;;4.93;;
37983;SDS011;61733;50.882;4.376;2022-09-03T05:18:33;6.78;;;5.60;;
37983;SDS011;61733;50.882;4.376;2022-09-03T05:21:00;9.48;;;5.00;;
37983;SDS011;61733;50.882;4.376;2022-09-03T05:23:31;8.50;;;5.75;;
37983;SDS011;61733;50.882;4.376;2022-09-03T05:26:02;6.85;;;5.03;;
37983;SDS011;61733;50.882;4.376;2022-09-03T05:28:34;9.13;;;5.72;;
37983;SDS011;61733;50.882;4.376;2022-09-03T05:31:08;10.75;;;6.90;;
37983;SDS011;61733;50.882;4.376;2022-09-03T05:33:36;10.88;;;6.25;;
37983;SDS011;61733;50.882;4.376;2022-09-03T05:36:08;5.97;;;4.57;;
37983;SDS011;61733;50.882;4.376;2022-09-03T05:38:39;10.90;;;6.15;;
37983;SDS011;61733;50.882;4.376;2022-09-03T05:41:05;7.13;;;6.40;;
37983;SDS011;61733;50.882;4.376;2022-09-03T05:43:33;18.60;;;7.28;;
37983;SDS011;61733;50.882;4.376;2022-09-03T05:46:00;9.98;;;6.68;;
37983;SDS011;61733;50.882;4.376;2022-09-03T05:48:28;11.60;;;6.35;;
37983;SDS011;61733;50.882;4.376;2022-09-03T05:51:08;8.00;;;6.00;;
37983;SDS011;61733;50.882;4.376;2022-09-03T05:53:37;14.75;;;5.97;;
37983;SDS011;61733;50.882;4.376;2022-09-03T05:56:05;8.02;;;5.95;;
37983;SDS011;61733;50.882;4.376;2022-09-03T05:58:38;8.65;;;6.90;;
37983;SDS011;61733;50.882;4.376;2022-09-03T06:03:54;10.52;;;6.95;;
37983;SDS011;61733;50.882;4.376;2022-09-03T06:06:24;11.40;;;6.75;;
37983;SDS011;61733;50.882;4.376;2022-09-03T06:08:51;12.00;;;6.07;;
37983;SDS011;61733;50.882;4.376;2022-09-03T06:11:19;9.77;;;5.57;;
37983;SDS011;61733;50.882;4.376;2022-09-03T06:13:47;10.55;;;7.50;;
37983;SDS011;61733;50.882;4.376;2022-09-03T06:16:13;12.98;;;7.28;;
37983;SDS011;61733;50.882;4.376;2022-09-03T06:18:39;8.93;;;6.18;;
37983;SDS011;61733;50.882;4.376;2022-09-03T06:21:06;7.50;;;6.43;;
37983;SDS011;61733;50.882;4.376;2022-09-03T06:23:32;16.80;;;7.65;;
37983;SDS011;61733;50.882;4.376;2022-09-03T06:30:59;14.43;;;7.82;;
37983;SDS011;61733;50.882;4.376;2022-09-03T06:33:29;17.52;;;8.52;;
37983;SDS011;61733;50.882;4.376;2022-09-03T06:35:57;13.68;;;8.27;;
37983;SDS011;61733;50.882;4.376;2022-09-03T06:38:24;7.38;;;6.60;;
37983;SDS011;61733;50.882;4.376;2022-09-03T06:40:56;7.72;;;5.60;;
37983;SDS011;61733;50.882;4.376;2022-09-03T06:43:26;6.05;;;5.45;;
37983;SDS011;61733;50.882;4.376;2022-09-03T06:45:54;7.40;;;6.60;;
37983;SDS011;61733;50.882;4.376;2022-09-03T06:48:24;11.10;;;6.00;;
37983;SDS011;61733;50.882;4.376;2022-09-03T06:50:57;14.73;;;5.50;;
37983;SDS011;61733;50.882;4.376;2022-09-03T06:53:28;8.35;;;4.47;;
37983;SDS011;61733;50.882;4.376;2022-09-03T06:55:56;7.22;;;5.35;;
37983;SDS011;61733;50.882;4.376;2022-09-03T06:58:24;7.00;;;3.85;;
37983;SDS011;61733;50.882;4.376;2022-09-03T07:01:00;5.25;;;3.63;;
37983;SDS011;61733;50.882;4.376;2022-09-03T07:03:30;8.02;;;4.40;;
37983;SDS011;61733;50.882;4.376;2022-09-03T07:06:03;5.93;;;3.95;;
37983;SDS011;61733;50.882;4.376;2022-09-03T07:08:49;5.47;;;3.60;;
37983;SDS011;61733;50.882;4.376;2022-09-03T07:11:18;5.50;;;3.88;;
37983;SDS011;61733;50.882;4.376;2022-09-03T07:13:48;8.43;;;4.00;;
37983;SDS011;61733;50.882;4.376;2022-09-03T07:16:17;8.35;;;4.40;;
37983;SDS011;61733;50.882;4.376;2022-09-03T07:18:44;7.60;;;5.00;;
37983;SDS011;61733;50.882;4.376;2022-09-03T07:21:32;11.27;;;4.20;;
37983;SDS011;61733;50.882;4.376;2022-09-03T07:24:01;5.20;;;4.05;;
37983;SDS011;61733;50.882;4.376;2022-09-03T07:26:29;12.65;;;3.55;;
37983;SDS011;61733;50.882;4.376;2022-09-03T07:29:00;12.18;;;5.30;;
37983;SDS011;61733;50.882;4.376;2022-09-03T07:31:29;6.80;;;5.50;;
37983;SDS011;61733;50.882;4.376;2022-09-03T07:34:01;13.43;;;4.75;;
37983;SDS011;61733;50.882;4.376;2022-09-03T07:36:38;9.18;;;4.55;;
37983;SDS011;61733;50.882;4.376;2022-09-03T07:39:11;11.57;;;4.85;;
37983;SDS011;61733;50.882;4.376;2022-09-03T07:41:39;8.45;;;4.93;;
37983;SDS011;61733;50.882;4.376;2022-09-03T07:44:11;10.57;;;4.70;;
37983;SDS011;61733;50.882;4.376;2022-09-03T07:46:39;9.60;;;4.90;;
37983;SDS011;61733;50.882;4.376;2022-09-03T07:49:05;11.38;;;3.40;;
37983;SDS011;61733;50.882;4.376;2022-09-03T07:51:32;4.32;;;3.40;;
37983;SDS011;61733;50.882;4.376;2022-09-03T07:54:00;5.22;;;3.20;;
37983;SDS011;61733;50.882;4.376;2022-09-03T07:56:29;6.25;;;3.70;;
37983;SDS011;61733;50.882;4.376;2022-09-03T07:59:00;11.55;;;3.58;;
37983;SDS011;61733;50.882;4.376;2022-09-03T08:01:27;7.93;;;2.78;;
37983;SDS011;61733;50.882;4.376;2022-09-03T08:03:55;6.68;;;2.80;;
37983;SDS011;61733;50.882;4.376;2022-09-03T08:06:25;5.88;;;2.88;;
37983;SDS011;61733;50.882;4.376;2022-09-03T08:08:59;7.03;;;2.72;;
37983;SDS011;61733;50.882;4.376;2022-09-03T08:11:29;5.72;;;3.28;;
37983;SDS011;61733;50.882;4.376;2022-09-03T08:16:33;4.95;;;3.35;;
37983;SDS011;61733;50.882;4.376;2022-09-03T08:19:00;13.13;;;3.50;;
37983;SDS011;61733;50.882;4.376;2022-09-03T08:21:26;7.80;;;3.58;;
37983;SDS011;61733;50.882;4.376;2022-09-03T08:23:53;4.07;;;3.60;;
37983;SDS011;61733;50.882;4.376;2022-09-03T08:26:26;5.38;;;3.25;;
37983;SDS011;61733;50.882;4.376;2022-09-03T08:28:59;7.32;;;3.38;;
37983;SDS011;61733;50.882;4.376;2022-09-03T08:31:26;6.18;;;3.83;;
37983;SDS011;61733;50.882;4.376;2022-09-03T08:33:53;6.85;;;3.58;;
37983;SDS011;61733;50.882;4.376;2022-09-03T08:36:22;12.63;;;3.42;;
37983;SDS011;61733;50.882;4.376;2022-09-03T08:38:54;5.88;;;3.83;;
37983;SDS011;61733;50.882;4.376;2022-09-03T08:44:25;5.55;;;3.53;;
37983;SDS011;61733;50.882;4.376;2022-09-03T08:52:45;7.38;;;3.05;;
37983;SDS011;61733;50.882;4.376;2022-09-03T09:06:34;11.60;;;4.55;;
37983;SDS011;61733;50.882;4.376;2022-09-03T09:09:12;10.73;;;4.25;;
37983;SDS011;61733;50.882;4.376;2022-09-03T09:20:30;6.10;;;3.67;;
37983;SDS011;61733;50.882;4.376;2022-09-03T09:23:00;9.40;;;4.15;;
37983;SDS011;61733;50.882;4.376;2022-09-03T09:25:30;13.75;;;3.83;;
37983;SDS011;61733;50.882;4.376;2022-09-03T09:28:11;5.82;;;4.15;;
37983;SDS011;61733;50.882;4.376;2022-09-03T09:30:46;7.07;;;4.38;;
37983;SDS011;61733;50.882;4.376;2022-09-03T09:33:13;15.30;;;5.25;;
37983;SDS011;61733;50.882;4.376;2022-09-03T09:35:41;14.68;;;4.78;;
37983;SDS011;61733;50.882;4.376;2022-09-03T09:38:08;5.40;;;4.18;;
37983;SDS011;61733;50.882;4.376;2022-09-03T09:40:36;9.20;;;4.85;;
37983;SDS011;61733;50.882;4.376;2022-09-03T09:43:06;8.20;;;4.85;;
37983;SDS011;61733;50.882;4.376;2022-09-03T09:45:40;11.82;;;4.57;;
37983;SDS011;61733;50.882;4.376;2022-09-03T09:53:37;11.35;;;4.28;;
37983;SDS011;61733;50.882;4.376;2022-09-03T09:56:04;69.30;;;15.90;;
37983;SDS011;61733;50.882;4.376;2022-09-03T09:58:31;607.53;;;239.52;;
37983;SDS011;61733;50.882;4.376;2022-09-03T10:03:59;358.77;;;131.90;;
37983;SDS011;61733;50.882;4.376;2022-09-03T10:06:40;34.92;;;15.57;;
37983;SDS011;61733;50.882;4.376;2022-09-03T10:09:27;87.53;;;27.25;;
37983;SDS011;61733;50.882;4.376;2022-09-03T10:14:56;525.13;;;209.55;;
37983;SDS011;61733;50.882;4.376;2022-09-03T10:17:29;407.42;;;152.13;;
37983;SDS011;61733;50.882;4.376;2022-09-03T10:20:06;357.25;;;143.60;;
37983;SDS011;61733;50.882;4.376;2022-09-03T10:22:54;63.22;;;24.88;;
37983;SDS011;61733;50.882;4.376;2022-09-03T10:25:45;15.57;;;7.25;;
37983;SDS011;61733;50.882;4.376;2022-09-03T10:28:32;10.02;;;6.50;;
37983;SDS011;61733;50.882;4.376;2022-09-03T10:33:32;11.20;;;6.22;;
37983;SDS011;61733;50.882;4.376;2022-09-03T10:38:41;8.70;;;4.97;;
37983;SDS011;61733;50.882;4.376;2022-09-03T10:49:41;8.98;;;5.03;;
37983;SDS011;61733;50.882;4.376;2022-09-03T10:55:51;9.77;;;5.38;;
37983;SDS011;61733;50.882;4.376;2022-09-03T10:58:18;9.63;;;5.90;;
37983;SDS011;61733;50.882;4.376;2022-09-03T11:00:52;10.60;;;6.03;;
37983;SDS011;61733;50.882;4.376;2022-09-03T11:03:39;13.48;;;5.20;;
37983;SDS011;61733;50.882;4.376;2022-09-03T11:06:11;8.85;;;5.85;;
37983;SDS011;61733;50.882;4.376;2022-09-03T11:09:00;11.90;;;6.43;;
37983;SDS011;61733;50.882;4.376;2022-09-03T11:11:42;9.32;;;6.18;;
37983;SDS011;61733;50.882;4.376;2022-09-03T11:14:27;9.02;;;5.60;;
37983;SDS011;61733;50.882;4.376;2022-09-03T11:17:15;8.95;;;5.97;;
37983;SDS011;61733;50.882;4.376;2022-09-03T11:19:58;13.13;;;5.90;;
37983;SDS011;61733;50.882;4.376;2022-09-03T11:22:30;8.40;;;5.57;;
37983;SDS011;61733;50.882;4.376;2022-09-03T11:24:58;12.00;;;6.20;;
37983;SDS011;61733;50.882;4.376;2022-09-03T11:30:08;11.10;;;6.47;;
37983;SDS011;61733;50.882;4.376;2022-09-03T11:32:48;11.80;;;6.28;;
37983;SDS011;61733;50.882;4.376;2022-09-03T11:40:39;17.75;;;6.43;;
37983;SDS011;61733;50.882;4.376;2022-09-03T11:43:28;12.18;;;8.88;;
37983;SDS011;61733;50.882;4.376;2022-09-03T11:46:04;10.50;;;5.25;;
37983;SDS011;61733;50.882;4.376;2022-09-03T11:48:40;12.88;;;6.68;;
37983;SDS011;61733;50.882;4.376;2022-09-03T11:56:42;10.82;;;5.20;;
37983;SDS011;61733;50.882;4.376;2022-09-03T11:59:16;12.27;;;5.13;;
37983;SDS011;61733;50.882;4.376;2022-09-03T12:01:51;10.52;;;5.13;;
37983;SDS011;61733;50.882;4.376;2022-09-03T12:12:49;7.22;;;4.75;;
37983;SDS011;61733;50.882;4.376;2022-09-03T12:15:25;9.40;;;5.10;;
37983;SDS011;61733;50.882;4.376;2022-09-03T12:17:58;5.97;;;4.53;;
37983;SDS011;61733;50.882;4.376;2022-09-03T12:20:46;14.02;;;6.18;;
37983;SDS011;61733;50.882;4.376;2022-09-03T12:25:52;13.55;;;5.35;;
37983;SDS011;61733;50.882;4.376;2022-09-03T12:28:23;9.30;;;5.50;;
37983;SDS011;61733;50.882;4.376;2022-09-03T12:31:04;9.73;;;5.05;;
37983;SDS011;61733;50.882;4.376;2022-09-03T12:33:53;12.77;;;5.55;;
37983;SDS011;61733;50.882;4.376;2022-09-03T12:36:23;8.18;;;5.20;;
37983;SDS011;61733;50.882;4.376;2022-09-03T12:38:51;10.73;;;6.28;;
37983;SDS011;61733;50.882;4.376;2022-09-03T12:41:24;9.15;;;4.95;;
37983;SDS011;61733;50.882;4.376;2022-09-03T12:43:56;8.07;;;5.55;;
37983;SDS011;61733;50.882;4.376;2022-09-03T12:46:24;6.70;;;4.88;;
37983;SDS011;61733;50.882;4.376;2022-09-03T12:48:55;5.38;;;4.82;;
37983;SDS011;61733;50.882;4.376;2022-09-03T12:51:38;7.72;;;5.00;;
37983;SDS011;61733;50.882;4.376;2022-09-03T12:54:07;7.00;;;5.43;;
37983;SDS011;61733;50.882;4.376;2022-09-03T12:56:41;11.43;;;6.38;;
37983;SDS011;61733;50.882;4.376;2022-09-03T12:59:11;5.25;;;3.72;;
37983;SDS011;61733;50.882;4.376;2022-09-03T13:04:14;6.32;;;5.05;;
37983;SDS011;61733;50.882;4.376;2022-09-03T13:07:34;7.55;;;5.47;;
37983;SDS011;61733;50.882;4.376;2022-09-03T13:10:05;7.93;;;5.28;;
37983;SDS011;61733;50.882;4.376;2022-09-03T13:12:44;5.13;;;3.60;;
37983;SDS011;61733;50.882;4.376;2022-09-03T13:15:23;7.68;;;4.45;;
37983;SDS011;61733;50.882;4.376;2022-09-03T13:20:20;3.75;;;3.35;;
37983;SDS011;61733;50.882;4.376;2022-09-03T13:25:56;5.20;;;4.07;;
37983;SDS011;61733;50.882;4.376;2022-09-03T13:34:00;3.08;;;2.75;;
37983;SDS011;61733;50.882;4.376;2022-09-03T13:39:27;4.20;;;2.90;;
37983;SDS011;61733;50.882;4.376;2022-09-03T13:42:02;4.35;;;2.70;;
37983;SDS011;61733;50.882;4.376;2022-09-03T13:44:44;4.07;;;3.50;;
37983;SDS011;61733;50.882;4.376;2022-09-03T13:50:47;3.60;;;3.13;;
37983;SDS011;61733;50.882;4.376;2022-09-03T13:56:13;6.28;;;2.92;;
37983;SDS011;61733;50.882;4.376;2022-09-03T13:58:50;4.88;;;3.13;;
37983;SDS011;61733;50.882;4.376;2022-09-03T14:01:49;5.65;;;3.17;;
37983;SDS011;61733;50.882;4.376;2022-09-03T14:04:31;3.58;;;2.65;;
37983;SDS011;61733;50.882;4.376;2022-09-03T14:07:20;3.95;;;2.97;;
37983;SDS011;61733;50.882;4.376;2022-09-03T14:10:16;3.60;;;2.70;;
37983;SDS011;61733;50.882;4.376;2022-09-03T14:18:19;5.75;;;3.38;;
37983;SDS011;61733;50.882;4.376;2022-09-03T14:21:21;4.03;;;2.95;;
37983;SDS011;61733;50.882;4.376;2022-09-03T14:24:19;5.22;;;3.03;;
37983;SDS011;61733;50.882;4.376;2022-09-03T14:26:59;5.47;;;2.70;;
37983;SDS011;61733;50.882;4.376;2022-09-03T14:29:30;5.32;;;3.00;;
37983;SDS011;61733;50.882;4.376;2022-09-03T14:40:46;7.30;;;3.60;;
37983;SDS011;61733;50.882;4.376;2022-09-03T15:00:02;13.75;;;2.72;;
37983;SDS011;61733;50.882;4.376;2022-09-03T15:02:53;7.15;;;2.50;;
37983;SDS011;61733;50.882;4.376;2022-09-03T15:11:29;8.57;;;2.88;;
37983;SDS011;61733;50.882;4.376;2022-09-03T15:14:17;2.35;;;1.88;;
37983;SDS011;61733;50.882;4.376;2022-09-03T15:36:51;4.15;;;2.03;;
37983;SDS011;61733;50.882;4.376;2022-09-03T15:39:23;4.60;;;2.75;;
37983;SDS011;61733;50.882;4.376;2022-09-03T15:41:58;6.13;;;3.38;;
37983;SDS011;61733;50.882;4.376;2022-09-03T15:44:49;4.85;;;2.30;;
37983;SDS011;61733;50.882;4.376;2022-09-03T15:50:15;3.20;;;2.65;;
37983;SDS011;61733;50.882;4.376;2022-09-03T15:53:01;4.82;;;2.58;;
37983;SDS011;61733;50.882;4.376;2022-09-03T15:55:37;6.63;;;2.55;;
37983;SDS011;61733;50.882;4.376;2022-09-03T15:58:17;7.15;;;3.55;;
37983;SDS011;61733;50.882;4.376;2022-09-03T16:00:57;7.90;;;3.10;;
37983;SDS011;61733;50.882;4.376;2022-09-03T16:03:32;5.18;;;2.90;;
37983;SDS011;61733;50.882;4.376;2022-09-03T16:06:19;6.40;;;3.30;;
37983;SDS011;61733;50.882;4.376;2022-09-03T16:22:55;8.75;;;3.15;;
37983;SDS011;61733;50.882;4.376;2022-09-03T16:27:57;4.70;;;2.78;;
37983;SDS011;61733;50.882;4.376;2022-09-03T16:40:02;4.32;;;1.70;;
37983;SDS011;61733;50.882;4.376;2022-09-03T16:54:40;2.10;;;1.83;;
37983;SDS011;61733;50.882;4.376;2022-09-03T16:59:59;2.17;;;1.80;;
37983;SDS011;61733;50.882;4.376;2022-09-03T17:14:01;3.20;;;2.50;;
37983;SDS011;61733;50.882;4.376;2022-09-03T17:19:34;3.35;;;2.35;;
37983;SDS011;61733;50.882;4.376;2022-09-03T17:25:03;8.70;;;3.55;;
37983;SDS011;61733;50.882;4.376;2022-09-03T17:35:39;8.85;;;3.63;;
37983;SDS011;61733;50.882;4.376;2022-09-03T17:46:53;5.25;;;2.72;;
37983;SDS011;61733;50.882;4.376;2022-09-03T17:49:43;5.68;;;4.10;;
37983;SDS011;61733;50.882;4.376;2022-09-03T17:55:07;11.48;;;4.88;;
37983;SDS011;61733;50.882;4.376;2022-09-03T17:57:57;5.82;;;2.75;;
37983;SDS011;61733;50.882;4.376;2022-09-03T18:09:06;14.40;;;3.78;;
37983;SDS011;61733;50.882;4.376;2022-09-03T18:11:46;8.52;;;3.35;;
37983;SDS011;61733;50.882;4.376;2022-09-03T18:17:02;9.63;;;2.92;;
37983;SDS011;61733;50.882;4.376;2022-09-03T18:22:28;5.15;;;3.65;;
37983;SDS011;61733;50.882;4.376;2022-09-03T18:25:41;6.50;;;3.50;;
37983;SDS011;61733;50.882;4.376;2022-09-03T18:28:35;5.70;;;3.85;;
37983;SDS011;61733;50.882;4.376;2022-09-03T18:31:47;6.40;;;2.95;;
37983;SDS011;61733;50.882;4.376;2022-09-03T18:34:32;5.53;;;3.40;;
37983;SDS011;61733;50.882;4.376;2022-09-03T18:37:22;9.35;;;4.10;;
37983;SDS011;61733;50.882;4.376;2022-09-03T18:40:09;4.13;;;3.67;;
37983;SDS011;61733;50.882;4.376;2022-09-03T18:43:21;5.18;;;3.40;;
37983;SDS011;61733;50.882;4.376;2022-09-03T19:01:46;5.78;;;2.05;;
37983;SDS011;61733;50.882;4.376;2022-09-03T19:04:53;4.53;;;3.00;;
37983;SDS011;61733;50.882;4.376;2022-09-03T19:11:08;5.97;;;2.95;;
37983;SDS011;61733;50.882;4.376;2022-09-03T19:13:54;6.65;;;3.78;;
37983;SDS011;61733;50.882;4.376;2022-09-03T19:22:37;11.38;;;4.53;;
37983;SDS011;61733;50.882;4.376;2022-09-03T19:25:24;8.27;;;3.60;;
37983;SDS011;61733;50.882;4.376;2022-09-03T19:37:39;10.57;;;3.15;;
37983;SDS011;61733;50.882;4.376;2022-09-03T19:47:03;8.93;;;3.17;;
37983;SDS011;61733;50.882;4.376;2022-09-03T19:53:01;7.32;;;3.33;;
37983;SDS011;61733;50.882;4.376;2022-09-03T19:55:54;9.70;;;3.10;;
37983;SDS011;61733;50.882;4.376;2022-09-03T19:58:42;4.22;;;3.25;;
37983;SDS011;61733;50.882;4.376;2022-09-03T20:01:47;4.00;;;3.33;;
37983;SDS011;61733;50.882;4.376;2022-09-03T20:04:35;6.40;;;3.97;;
37983;SDS011;61733;50.882;4.376;2022-09-03T20:07:27;4.88;;;3.40;;
37983;SDS011;61733;50.882;4.376;2022-09-03T20:10:12;5.43;;;2.55;;
37983;SDS011;61733;50.882;4.376;2022-09-03T20:16:28;6.90;;;3.22;;
37983;SDS011;61733;50.882;4.376;2022-09-03T20:27:21;6.97;;;4.10;;
37983;SDS011;61733;50.882;4.376;2022-09-03T20:29:55;3.50;;;2.70;;
37983;SDS011;61733;50.882;4.376;2022-09-03T20:38:52;11.60;;;3.28;;
37983;SDS011;61733;50.882;4.376;2022-09-03T20:55:43;7.13;;;3.22;;
37983;SDS011;61733;50.882;4.376;2022-09-03T21:01:02;6.82;;;3.30;;
37983;SDS011;61733;50.882;4.376;2022-09-03T21:17:30;6.88;;;3.90;;
37983;SDS011;61733;50.882;4.376;2022-09-03T21:25:06;7.28;;;4.43;;
37983;SDS011;61733;50.882;4.376;2022-09-03T21:28:24;6.00;;;3.42;;
37983;SDS011;61733;50.882;4.376;2022-09-03T21:30:29;7.93;;;4.85;;
37983;SDS011;61733;50.882;4.376;2022-09-03T21:33:02;9.15;;;4.82;;
37983;SDS011;61733;50.882;4.376;2022-09-03T21:35:34;9.57;;;4.35;;
37983;SDS011;61733;50.882;4.376;2022-09-03T21:40:38;11.00;;;5.25;;
37983;SDS011;61733;50.882;4.376;2022-09-03T21:49:19;6.72;;;4.30;;
37983;SDS011;61733;50.882;4.376;2022-09-03T21:51:26;13.65;;;6.10;;
37983;SDS011;61733;50.882;4.376;2022-09-03T21:54:00;8.38;;;5.15;;
37983;SDS011;61733;50.882;4.376;2022-09-03T22:02:35;6.97;;;4.85;;
37983;SDS011;61733;50.882;4.376;2022-09-03T22:05:01;10.50;;;5.85;;
37983;SDS011;61733;50.882;4.376;2022-09-03T22:15:40;28.58;;;5.22;;
37983;SDS011;61733;50.882;4.376;2022-09-03T22:18:17;6.72;;;5.07;;
37983;SDS011;61733;50.882;4.376;2022-09-03T22:24:23;15.10;;;5.38;;
37983;SDS011;61733;50.882;4.376;2022-09-03T22:29:10;18.95;;;5.82;;
37983;SDS011;61733;50.882;4.376;2022-09-03T22:32:06;10.38;;;5.93;;
37983;SDS011;61733;50.882;4.376;2022-09-03T22:34:42;9.13;;;5.57;;
37983;SDS011;61733;50.882;4.376;2022-09-03T22:40:38;12.57;;;5.32;;
37983;SDS011;61733;50.882;4.376;2022-09-03T22:51:13;10.15;;;5.28;;
37983;SDS011;61733;50.882;4.376;2022-09-03T22:56:15;38.42;;;6.47;;
37983;SDS011;61733;50.882;4.376;2022-09-03T22:59:03;13.05;;;5.40;;
37983;SDS011;61733;50.882;4.376;2022-09-03T23:04:30;9.07;;;4.88;;
37983;SDS011;61733;50.882;4.376;2022-09-03T23:10:33;7.45;;;4.85;;
37983;SDS011;61733;50.882;4.376;2022-09-03T23:13:21;16.58;;;4.85;;
37983;SDS011;61733;50.882;4.376;2022-09-03T23:18:45;13.15;;;5.53;;
37983;SDS011;61733;50.882;4.376;2022-09-03T23:23:49;13.20;;;5.25;;
37983;SDS011;61733;50.882;4.376;2022-09-03T23:28:58;8.13;;;4.50;;
37983;SDS011;61733;50.882;4.376;2022-09-03T23:31:34;15.85;;;4.97;;
37983;SDS011;61733;50.882;4.376;2022-09-03T23:34:00;8.18;;;4.57;;
37983;SDS011;61733;50.882;4.376;2022-09-03T23:42:32;6.82;;;4.20;;
